Time;durP1;ratioP1;P1;durP2;ratioP2;P2;SDS_P1;SDS_P2;PMS_P1;PMS_P2;Temp;Humidity;BMP_temperature;BMP_pressure;BME280_temperature;BME280_humidity;BME280_pressure;Samples;Min_cycle;Max_cycle;Signal;HPM_P1;HPM_P2
2022/06/05 00:03:19;;;;;;;;;;;;;;;8.76;85.97;96775.94;6246966;28;20381;-69
2022/06/05 00:06:37;;;;;;;;;;;;;;;9.16;86.26;96773.56;6246692;28;19927;-68
2022/06/05 00:09:55;;;;;;;;;;;;;;;9.02;85.37;96773.53;6246826;28;19921;-68
2022/06/05 00:13:20;;;;;;;;;;;;;;;8.85;85.81;96764.91;6246266;28;19928;-68
2022/06/05 00:16:26;;;;;;;;;;;;;;;8.89;86.96;96771.66;6246578;28;20452;-69
2022/06/05 00:19:29;;;;;;;;;;;;;;;9.18;85.21;96761.19;6246466;28;19927;-69
2022/06/05 00:22:33;;;;;;;;;;;;;;;9.04;85.24;96763.81;6246449;28;19921;-68
2022/06/05 00:25:40;;;;;;;;;;;;;;;8.87;85.95;96763.03;6246607;28;19928;-69
2022/06/05 00:29:07;;;;;;;;;;;;;;;9.01;84.92;96764.84;6246472;28;19916;-69
2022/06/05 00:32:21;;;;;;;;;;;;;;;8.94;85.40;96768.75;6245503;28;20306;-69
2022/06/05 00:35:30;;;;;;;;;;;;;;;8.95;85.42;96766.03;6246531;28;20402;-69
2022/06/05 00:38:40;;;;;;;;;;;;;;;8.83;85.94;96766.78;6246314;28;20153;-69
2022/06/05 00:41:41;;;;;;;;;;;;;;;8.75;85.61;96763.78;6246276;28;19921;-69
2022/06/05 00:44:47;;;;;;;;;;;;;;;8.73;86.67;96765.63;6246389;28;19920;-69
2022/06/05 00:47:48;;;;;;;;;;;;;;;8.92;86.70;96771.47;6246336;28;19928;-69
2022/06/05 00:50:52;;;;;;;;;;;;;;;8.76;87.01;96775.94;6246123;28;19959;-69
2022/06/05 00:53:55;;;;;;;;;;;;;;;9.03;87.08;96773.47;6246100;28;19924;-69
2022/06/05 00:56:57;;;;;;;;;;;;;;;9.14;85.32;96763.16;6246157;28;19927;-69
2022/06/05 01:00:02;;;;;;;;;;;;;;;8.91;85.13;96769.78;6245826;28;19921;-68
2022/06/05 01:03:06;;;;;;;;;;;;;;;8.81;85.92;96763.41;6245766;28;19921;-68
2022/06/05 01:06:11;;;;;;;;;;;;;;;9.06;85.13;96767.16;6246008;28;20388;-68
2022/06/05 01:09:12;;;;;;;;;;;;;;;9.00;84.09;96768.38;6248070;28;19921;-69
2022/06/05 01:12:30;;;;;;;;;;;;;;;9.08;84.73;96763.50;6250761;28;20312;-69
2022/06/05 01:15:34;;;;;;;;;;;;;;;9.17;83.80;96760.34;6249545;28;19921;-69
2022/06/05 01:18:56;;;;;;;;;;;;;;;8.97;83.72;96758.94;6250675;28;19917;-69
2022/06/05 01:22:03;;;;;;;;;;;;;;;8.96;83.63;96757.22;6250226;28;19928;-69
2022/06/05 01:25:07;;;;;;;;;;;;;;;8.80;85.03;96766.94;6250192;28;19921;-69
2022/06/05 01:28:11;;;;;;;;;;;;;;;8.82;85.23;96769.50;6250430;28;19921;-67
2022/06/05 01:31:25;;;;;;;;;;;;;;;8.86;85.81;96771.84;6250467;28;19923;-68
2022/06/05 01:34:40;;;;;;;;;;;;;;;8.94;84.93;96774.84;6250231;28;19927;-70
2022/06/05 01:37:46;;;;;;;;;;;;;;;8.91;84.46;96782.88;6249956;28;19923;-68
2022/06/05 01:40:49;;;;;;;;;;;;;;;8.85;84.76;96780.63;6250115;28;19921;-69
2022/06/05 01:43:52;;;;;;;;;;;;;;;8.72;85.63;96777.06;6250182;28;19921;-70
2022/06/05 01:46:57;;;;;;;;;;;;;;;8.82;86.04;96770.31;6250094;28;19920;-69
2022/06/05 01:50:09;;;;;;;;;;;;;;;9.14;84.89;96778.91;6250099;28;20273;-70
2022/06/05 01:53:18;;;;;;;;;;;;;;;9.26;84.17;96779.94;6250164;28;19921;-70
2022/06/05 01:56:38;;;;;;;;;;;;;;;9.07;83.76;96784.63;6250087;28;19921;-70
2022/06/05 01:59:54;;;;;;;;;;;;;;;9.10;83.79;96773.94;6249887;28;19921;-70
2022/06/05 02:03:00;;;;;;;;;;;;;;;9.28;83.42;96764.91;6249676;28;20382;-69
2022/06/05 02:06:04;;;;;;;;;;;;;;;9.13;83.74;96768.50;6249676;28;19921;-69
2022/06/05 02:09:13;;;;;;;;;;;;;;;9.17;83.30;96759.47;6249720;28;20320;-69
2022/06/05 02:12:18;;;;;;;;;;;;;;;8.93;84.25;96773.16;6249465;28;19921;-69
2022/06/05 02:15:20;;;;;;;;;;;;;;;9.08;84.61;96775.78;6249488;28;19961;-68
2022/06/05 02:18:23;;;;;;;;;;;;;;;9.13;84.58;96758.00;6249513;28;20221;-69
2022/06/05 02:21:24;;;;;;;;;;;;;;;9.06;84.53;96754.03;6249026;28;19928;-69
2022/06/05 02:24:29;;;;;;;;;;;;;;;9.09;84.34;96748.63;6249101;28;20370;-70
2022/06/05 02:27:35;;;;;;;;;;;;;;;9.03;85.01;96756.84;6247822;28;19928;-69
2022/06/05 02:30:58;;;;;;;;;;;;;;;9.28;83.91;96759.66;6247823;28;19916;-70
2022/06/05 02:34:08;;;;;;;;;;;;;;;9.18;83.81;96762.03;6247930;28;19921;-70
2022/06/05 02:37:24;;;;;;;;;;;;;;;9.07;84.34;96768.88;6247449;28;19917;-70
2022/06/05 02:40:28;;;;;;;;;;;;;;;9.34;83.28;96767.19;6246551;28;19924;-70
2022/06/05 02:43:29;;;;;;;;;;;;;;;9.21;82.83;96764.47;6247312;28;19928;-68
2022/06/05 02:46:33;;;;;;;;;;;;;;;9.05;83.34;96770.72;6247459;28;20399;-71
2022/06/05 02:49:42;;;;;;;;;;;;;;;8.98;84.37;96763.22;6247560;28;20408;-71
2022/06/05 02:52:44;;;;;;;;;;;;;;;9.09;84.35;96773.09;6247519;28;19927;-70
2022/06/05 02:55:45;;;;;;;;;;;;;;;9.22;84.66;96778.44;6246966;28;19927;-70
2022/06/05 02:58:52;;;;;;;;;;;;;;;9.19;84.77;96784.69;6247101;28;20387;-70
2022/06/05 03:05:17;;;;;;;;;;;;;;;9.29;84.50;96795.50;6247234;28;19921;-71
2022/06/05 03:08:19;;;;;;;;;;;;;;;9.33;84.79;96807.50;6246973;28;19921;-70
2022/06/05 03:11:22;;;;;;;;;;;;;;;9.43;84.97;96808.63;6246939;28;19921;-71
2022/06/05 03:14:29;;;;;;;;;;;;;;;9.72;84.75;96805.16;6247076;28;19921;-71
2022/06/05 03:17:30;;;;;;;;;;;;;;;9.59;83.95;96791.91;6246773;28;20519;-71
2022/06/05 03:20:34;;;;;;;;;;;;;;;9.63;84.54;96793.44;6246775;28;20010;-71
2022/06/05 03:23:35;;;;;;;;;;;;;;;9.60;84.25;96797.09;6199608;28;1380208;-72
2022/06/05 03:26:36;;;;;;;;;;;;;;;9.60;84.65;96791.00;6247642;28;19971;-71
2022/06/05 03:29:41;;;;;;;;;;;;;;;9.62;84.83;96792.59;6247740;28;19921;-71
2022/06/05 03:32:47;;;;;;;;;;;;;;;9.68;83.99;96775.56;6247088;28;19966;-70
2022/06/05 03:35:48;;;;;;;;;;;;;;;9.56;83.81;96777.19;6247360;28;19976;-71
2022/06/05 03:38:52;;;;;;;;;;;;;;;9.54;84.14;96772.97;6247871;28;19924;-70
2022/06/05 03:41:52;;;;;;;;;;;;;;;9.50;84.09;96787.25;6247639;28;20352;-71
2022/06/05 03:44:54;;;;;;;;;;;;;;;9.62;84.23;96786.47;6247121;28;20297;-71
2022/06/05 03:47:55;;;;;;;;;;;;;;;9.44;83.98;96788.47;6247376;28;19995;-72
2022/06/05 03:50:56;;;;;;;;;;;;;;;9.58;84.43;96785.00;6247008;28;19921;-70
2022/06/05 03:53:57;;;;;;;;;;;;;;;9.60;84.17;96798.88;6246967;28;19921;-70
2022/06/05 03:56:58;;;;;;;;;;;;;;;9.50;84.05;96797.75;6246822;28;20406;-71
2022/06/05 04:00:03;;;;;;;;;;;;;;;9.52;84.11;96801.13;6247378;28;19921;-71
2022/06/05 04:03:05;;;;;;;;;;;;;;;9.57;83.91;96802.53;6247045;28;19925;-72
2022/06/05 04:06:07;;;;;;;;;;;;;;;9.55;84.07;96800.94;6247039;28;19925;-71
2022/06/05 04:09:11;;;;;;;;;;;;;;;9.53;83.47;96802.81;6246943;28;19921;-72
2022/06/05 04:12:12;;;;;;;;;;;;;;;9.75;82.55;96791.81;6246541;28;19921;-72
2022/06/05 04:15:13;;;;;;;;;;;;;;;9.55;82.67;96806.19;6246976;28;20013;-71
2022/06/05 04:18:16;;;;;;;;;;;;;;;9.78;81.94;96795.09;6246591;28;20399;-72
2022/06/05 04:21:21;;;;;;;;;;;;;;;9.63;81.33;96799.53;6245223;28;19921;-70
2022/06/05 04:24:22;;;;;;;;;;;;;;;9.54;82.24;96804.47;6245944;28;19921;-71
2022/06/05 04:27:29;;;;;;;;;;;;;;;9.48;81.89;96800.44;6246416;28;20357;-71
2022/06/05 04:30:37;;;;;;;;;;;;;;;9.48;82.27;96792.56;6246451;28;20028;-71
2022/06/05 04:33:38;;;;;;;;;;;;;;;9.49;82.12;96798.69;6246597;28;19921;-70
2022/06/05 04:36:42;;;;;;;;;;;;;;;9.31;83.02;96798.88;6244865;28;19948;-70
2022/06/05 04:39:43;;;;;;;;;;;;;;;9.55;82.47;96803.56;6246372;28;20399;-71
2022/06/05 04:42:47;;;;;;;;;;;;;;;9.40;82.91;96798.31;6246121;28;19933;-71
2022/06/05 04:45:48;;;;;;;;;;;;;;;9.75;81.99;96802.31;6245766;28;19927;-71
2022/06/05 04:48:50;;;;;;;;;;;;;;;9.76;81.36;96794.31;6245948;28;20313;-70
2022/06/05 04:51:53;;;;;;;;;;;;;;;9.83;80.84;96782.50;6246023;28;19943;-71
2022/06/05 04:54:54;;;;;;;;;;;;;;;9.80;81.38;96790.59;6245860;28;19921;-71
2022/06/05 04:57:55;;;;;;;;;;;;;;;9.80;80.94;96790.59;6245713;28;19921;-70
2022/06/05 05:00:56;;;;;;;;;;;;;;;9.68;82.35;96783.44;6245763;28;19921;-71
2022/06/05 05:04:04;;;;;;;;;;;;;;;9.82;82.24;96783.47;6245864;28;19921;-71
2022/06/05 05:07:07;;;;;;;;;;;;;;;9.90;82.24;96785.56;6245683;28;20360;-71
2022/06/05 05:10:09;;;;;;;;;;;;;;;9.98;81.55;96792.97;6245712;28;20063;-70
2022/06/05 05:13:15;;;;;;;;;;;;;;;10.18;80.02;96779.41;6245410;28;19924;-71
2022/06/05 05:16:16;;;;;;;;;;;;;;;10.08;80.55;96791.47;6245650;28;19932;-73
2022/06/05 05:19:19;;;;;;;;;;;;;;;10.31;80.03;96782.13;6245606;28;19921;-72
2022/06/05 05:22:26;;;;;;;;;;;;;;;10.42;78.92;96784.06;6245585;28;19920;-71
2022/06/05 05:25:29;;;;;;;;;;;;;;;10.30;79.04;96793.56;6245358;28;20011;-71
2022/06/05 05:28:33;;;;;;;;;;;;;;;10.18;79.31;96782.03;6244742;28;20407;-71
2022/06/05 05:31:35;;;;;;;;;;;;;;;10.27;79.87;96777.97;6245412;28;19917;-72
2022/06/05 05:34:37;;;;;;;;;;;;;;;10.37;78.50;96772.97;6245478;28;19927;-71
2022/06/05 05:37:42;;;;;;;;;;;;;;;10.44;77.34;96776.88;6245359;28;19968;-71
2022/06/05 05:44:08;;;;;;;;;;;;;;;10.28;78.48;96782.31;6245607;28;19925;-70
2022/06/05 05:47:16;;;;;;;;;;;;;;;10.26;78.80;96782.38;6245527;28;19921;-71
2022/06/05 05:50:22;;;;;;;;;;;;;;;10.27;78.89;96784.09;6245322;28;19921;-71
2022/06/05 05:53:26;;;;;;;;;;;;;;;10.65;77.51;96791.25;6245341;28;19921;-70
2022/06/05 05:56:28;;;;;;;;;;;;;;;10.55;77.84;96790.16;6249289;28;19921;-72
2022/06/05 05:59:31;;;;;;;;;;;;;;;10.59;77.70;96799.56;6249709;28;19928;-71
2022/06/05 06:02:35;;;;;;;;;;;;;;;10.84;77.72;96787.38;6250072;28;20014;-71
2022/06/05 06:05:36;;;;;;;;;;;;;;;10.90;77.64;96784.34;6249731;28;19925;-71
2022/06/05 06:08:40;;;;;;;;;;;;;;;11.29;76.46;96783.41;6250212;28;19916;-70
2022/06/05 06:11:44;;;;;;;;;;;;;;;11.52;73.97;96792.38;6249574;28;20312;-69
2022/06/05 06:14:45;;;;;;;;;;;;;;;11.71;72.70;96793.69;6249382;28;19917;-69
2022/06/05 06:17:46;;;;;;;;;;;;;;;11.52;73.65;96795.00;6249011;28;20414;-68
2022/06/05 06:20:47;;;;;;;;;;;;;;;11.54;74.56;96798.34;6249082;28;20019;-68
2022/06/05 06:23:51;;;;;;;;;;;;;;;11.68;75.15;96806.13;6249053;28;19924;-67
2022/06/05 06:26:57;;;;;;;;;;;;;;;12.04;72.93;96809.78;6249144;28;19921;-68
2022/06/05 06:29:58;;;;;;;;;;;;;;;11.93;73.18;96804.44;6249051;28;19959;-67
2022/06/05 06:33:01;;;;;;;;;;;;;;;12.27;71.33;96815.19;6249046;28;20407;-68
2022/06/05 06:36:03;;;;;;;;;;;;;;;12.00;71.93;96816.25;6248879;28;20396;-68
2022/06/05 06:39:07;;;;;;;;;;;;;;;12.05;71.16;96808.81;6248715;28;19921;-68
2022/06/05 06:42:10;;;;;;;;;;;;;;;11.93;72.83;96799.16;6248615;28;19971;-69
2022/06/05 06:45:13;;;;;;;;;;;;;;;12.15;72.27;96808.19;6248854;28;19921;-69
2022/06/05 06:48:17;;;;;;;;;;;;;;;12.44;72.90;96804.25;6248916;28;19922;-69
2022/06/05 06:51:18;;;;;;;;;;;;;;;12.73;73.19;96809.16;6248314;28;20304;-69
2022/06/05 06:54:19;;;;;;;;;;;;;;;12.91;73.41;96818.38;6248451;28;19967;-68
2022/06/05 06:57:22;;;;;;;;;;;;;;;12.87;73.12;96811.63;6248591;28;20303;-69
2022/06/05 07:00:25;;;;;;;;;;;;;;;12.77;73.06;96822.03;6248377;28;19921;-67
2022/06/05 07:03:27;;;;;;;;;;;;;;;13.01;71.58;96831.72;6248240;28;19921;-67
2022/06/05 07:06:31;;;;;;;;;;;;;;;12.77;70.11;96821.19;6246966;28;19951;-68
2022/06/05 07:09:36;;;;;;;;;;;;;;;12.52;71.76;96816.91;6248116;28;20019;-68
2022/06/05 07:12:39;;;;;;;;;;;;;;;12.56;71.40;96818.34;6247834;28;19921;-68
2022/06/05 07:15:43;;;;;;;;;;;;;;;12.79;69.84;96825.41;6247922;28;20319;-67
2022/06/05 07:18:50;;;;;;;;;;;;;;;12.42;70.55;96831.69;6247918;28;19921;-68
2022/06/05 07:21:51;;;;;;;;;;;;;;;12.35;71.68;96832.16;6247782;28;20367;-68
2022/06/05 07:24:54;;;;;;;;;;;;;;;12.52;72.39;96830.09;6247576;28;19921;-67
2022/06/05 07:27:58;;;;;;;;;;;;;;;12.72;72.28;96823.34;6247691;28;20015;-68
2022/06/05 07:31:00;;;;;;;;;;;;;;;12.84;71.19;96822.41;6247609;28;19917;-68
2022/06/05 07:34:02;;;;;;;;;;;;;;;12.84;71.51;96832.13;6247578;28;19925;-68
2022/06/05 07:37:04;;;;;;;;;;;;;;;13.04;70.28;96834.13;6247229;28;19956;-68
2022/06/05 07:40:08;;;;;;;;;;;;;;;12.96;70.49;96834.69;6247061;28;19921;-68
2022/06/05 07:43:15;;;;;;;;;;;;;;;13.21;70.49;96832.84;6247285;28;20416;-68
2022/06/05 07:46:19;;;;;;;;;;;;;;;13.20;69.81;96829.38;6247330;28;19921;-67
2022/06/05 07:49:23;;;;;;;;;;;;;;;13.46;69.63;96829.19;6246905;28;19974;-68
2022/06/05 07:55:45;;;;;;;;;;;;;;;13.83;69.63;96834.28;6247042;28;19921;-69
2022/06/05 07:58:51;;;;;;;;;;;;;;;14.19;69.40;96833.16;6246985;28;19928;-69
2022/06/05 08:01:52;;;;;;;;;;;;;;;14.31;69.05;96832.16;6247002;28;19920;-69
2022/06/05 08:04:56;;;;;;;;;;;;;;;14.48;68.73;96832.63;6246966;28;19924;-68
2022/06/05 08:07:59;;;;;;;;;;;;;;;14.53;68.70;96827.81;6246932;28;19921;-68
2022/06/05 08:11:06;;;;;;;;;;;;;;;14.55;68.80;96824.09;6246835;28;20473;-69
2022/06/05 08:14:08;;;;;;;;;;;;;;;14.67;68.81;96832.84;6246907;28;20229;-69
2022/06/05 08:17:11;;;;;;;;;;;;;;;14.90;68.47;96824.78;6246185;28;19967;-68
2022/06/05 08:20:17;;;;;;;;;;;;;;;15.03;67.52;96826.31;6246409;28;19924;-68
2022/06/05 08:23:20;;;;;;;;;;;;;;;15.04;67.05;96827.13;6246199;28;20069;-68
2022/06/05 08:26:21;;;;;;;;;;;;;;;15.06;67.05;96822.56;6246129;28;19920;-69
2022/06/05 08:29:25;;;;;;;;;;;;;;;15.19;65.49;96827.66;6246317;28;19920;-69
2022/06/05 08:32:28;;;;;;;;;;;;;;;14.96;65.73;96826.94;6245038;28;20406;-69
2022/06/05 08:35:29;;;;;;;;;;;;;;;14.93;66.17;96835.13;6246293;28;20304;-68
2022/06/05 08:41:58;;;;;;;;;;;;;;;14.73;63.18;96837.63;6246396;28;20035;-69
2022/06/05 08:45:09;;;;;;;;;;;;;;;14.50;64.53;96836.00;6246439;28;20415;-71
2022/06/05 08:48:13;;;;;;;;;;;;;;;14.56;64.83;96840.81;6246058;28;19920;-69
2022/06/05 08:51:21;;;;;;;;;;;;;;;14.86;64.50;96831.31;6245701;28;19928;-68
2022/06/05 08:54:42;;;;;;;;;;;;;;;15.04;62.73;96835.09;6245552;28;20056;-68
2022/06/05 08:57:46;;;;;;;;;;;;;;;14.89;62.63;96836.34;6246144;28;20323;-68
2022/06/05 09:00:55;;;;;;;;;;;;;;;14.97;62.58;96841.84;6245588;28;19920;-68
2022/06/05 09:04:13;;;;;;;;;;;;;;;15.24;62.64;96836.91;6245767;28;19921;-68
2022/06/05 09:07:20;;;;;;;;;;;;;;;15.92;61.34;96831.16;6246498;28;19928;-69
2022/06/05 09:10:24;;;;;;;;;;;;;;;16.43;60.02;96840.81;6246076;28;20400;-68
2022/06/05 09:13:30;;;;;;;;;;;;;;;16.85;59.58;96843.28;6245810;28;19921;-68
2022/06/05 09:16:35;;;;;;;;;;;;;;;17.29;58.52;96838.34;6245638;28;19998;-68
2022/06/05 09:19:39;;;;;;;;;;;;;;;17.50;58.20;96847.00;6245828;28;19921;-67
2022/06/05 09:22:40;;;;;;;;;;;;;;;17.63;58.29;96861.81;6245536;28;19928;-68
2022/06/05 09:25:50;;;;;;;;;;;;;;;17.87;57.67;96854.22;6245175;28;19924;-68
2022/06/05 09:29:23;;;;;;;;;;;;;;;18.01;57.20;96854.72;6245644;28;19921;-69
2022/06/05 09:32:34;;;;;;;;;;;;;;;18.23;56.87;96850.84;6248333;28;19921;-69
2022/06/05 09:35:35;;;;;;;;;;;;;;;18.39;56.09;96854.53;6250364;28;19920;-68
2022/06/05 09:38:41;;;;;;;;;;;;;;;18.59;55.20;96854.44;6250530;28;19921;-69
2022/06/05 09:41:47;;;;;;;;;;;;;;;18.38;54.90;96847.53;6249937;28;20303;-68
2022/06/05 09:45:07;;;;;;;;;;;;;;;18.29;54.59;96856.44;6250041;28;20008;-68
2022/06/05 09:48:12;;;;;;;;;;;;;;;18.58;54.11;96852.75;6249719;28;19921;-68
2022/06/05 09:51:15;;;;;;;;;;;;;;;18.83;53.17;96852.06;6249990;28;19943;-67
2022/06/05 09:54:31;;;;;;;;;;;;;;;18.93;53.33;96854.63;6250093;28;19920;-68
2022/06/05 10:01:18;;;;;;;;;;;;;;;19.84;51.09;96853.53;6249445;28;19925;-69
2022/06/05 10:04:22;;;;;;;;;;;;;;;20.17;49.87;96847.38;6249525;28;20300;-68
2022/06/05 10:07:23;;;;;;;;;;;;;;;20.46;49.39;96856.00;6249513;28;19923;-68
2022/06/05 10:10:26;;;;;;;;;;;;;;;20.74;49.42;96865.47;6248243;28;19927;-68
2022/06/05 10:13:30;;;;;;;;;;;;;;;20.43;48.61;96857.16;6249435;28;20422;-68
2022/06/05 10:16:43;;;;;;;;;;;;;;;19.87;50.51;96855.91;6249035;28;19956;-68
2022/06/05 10:20:05;;;;;;;;;;;;;;;19.76;51.24;96865.03;6249225;28;19921;-68
2022/06/05 10:23:13;;;;;;;;;;;;;;;19.69;51.09;96864.81;6248810;28;19924;-68
2022/06/05 10:26:32;;;;;;;;;;;;;;;19.54;51.19;96866.34;6249070;28;20030;-67
2022/06/05 10:29:45;;;;;;;;;;;;;;;19.55;50.83;96862.66;6247831;28;19983;-68
2022/06/05 10:32:57;;;;;;;;;;;;;;;19.38;50.70;96858.19;6249070;28;20447;-68
2022/06/05 10:36:03;;;;;;;;;;;;;;;19.38;51.33;96869.72;6248861;28;19921;-67
2022/06/05 10:39:23;;;;;;;;;;;;;;;19.71;50.04;96862.81;6248647;28;19921;-68
2022/06/05 10:42:27;;;;;;;;;;;;;;;20.34;48.61;96871.50;6248622;28;19928;-67
2022/06/05 10:45:46;;;;;;;;;;;;;;;20.31;47.31;96871.81;6248596;28;19921;-68
2022/06/05 10:49:22;;;;;;;;;;;;;;;19.90;48.64;96868.94;6248712;28;19976;-67
2022/06/05 10:52:42;;;;;;;;;;;;;;;20.30;47.57;96862.97;6245204;28;19920;-68
2022/06/05 10:55:43;;;;;;;;;;;;;;;20.54;47.69;96864.94;6248359;28;19925;-67
2022/06/05 10:59:06;;;;;;;;;;;;;;;20.89;46.46;96864.84;6247921;28;20291;-67
2022/06/05 11:02:28;;;;;;;;;;;;;;;21.01;46.74;96861.72;6248126;28;20324;-68
2022/06/05 11:05:50;;;;;;;;;;;;;;;21.12;46.59;96867.72;6248449;28;19921;-68
2022/06/05 11:08:51;;;;;;;;;;;;;;;20.73;46.06;96879.03;6248269;28;19928;-69
2022/06/05 11:15:18;;;;;;;;;;;;;;;19.58;48.10;96878.38;6247985;28;19921;-68
2022/06/05 11:18:38;;;;;;;;;;;;;;;18.99;49.17;96882.53;6247510;28;19986;-68
2022/06/05 11:21:43;;;;;;;;;;;;;;;18.38;50.91;96889.34;6247662;28;20384;-68
2022/06/05 11:24:47;;;;;;;;;;;;;;;18.35;51.16;96876.31;6247253;28;19928;-68
2022/06/05 11:28:08;;;;;;;;;;;;;;;18.55;51.02;96874.38;6247373;28;19956;-68
2022/06/05 11:31:11;;;;;;;;;;;;;;;18.71;50.18;96871.91;6247604;28;19927;-68
2022/06/05 11:34:12;;;;;;;;;;;;;;;18.47;50.71;96882.28;6247413;28;19921;-66
2022/06/05 11:37:26;;;;;;;;;;;;;;;18.12;51.21;96878.53;6247801;28;19928;-68
2022/06/05 11:40:46;;;;;;;;;;;;;;;17.76;52.01;96882.81;6247062;28;19970;-68
2022/06/05 11:44:05;;;;;;;;;;;;;;;17.33;52.74;96884.13;6247064;28;19921;-69
2022/06/05 11:47:14;;;;;;;;;;;;;;;16.97;53.43;96892.66;6246993;28;19921;-68
2022/06/05 11:50:34;;;;;;;;;;;;;;;16.74;54.19;96886.72;6246654;28;19924;-69
2022/06/05 11:53:43;;;;;;;;;;;;;;;16.77;54.13;96885.66;6246342;28;20364;-68
2022/06/05 11:56:56;;;;;;;;;;;;;;;16.71;54.21;96887.00;6247029;28;19921;-68
2022/06/05 12:00:15;;;;;;;;;;;;;;;16.56;54.39;96883.91;6246700;28;19921;-69
2022/06/05 12:03:31;;;;;;;;;;;;;;;16.54;54.49;96872.56;6246684;28;20307;-68
2022/06/05 12:06:41;;;;;;;;;;;;;;;16.47;54.75;96874.06;6246699;28;20380;-68
2022/06/05 12:09:49;;;;;;;;;;;;;;;16.47;54.77;96879.38;6245622;28;19921;-68
2022/06/05 12:13:09;;;;;;;;;;;;;;;16.44;54.58;96874.34;6246975;28;20415;-67
2022/06/05 12:16:16;;;;;;;;;;;;;;;16.42;54.86;96871.00;6246963;28;19921;-68
2022/06/05 12:19:37;;;;;;;;;;;;;;;16.38;54.71;96864.28;6245592;28;19921;-68
2022/06/05 12:22:50;;;;;;;;;;;;;;;16.10;55.44;96866.69;6246298;28;20420;-68
2022/06/05 12:26:13;;;;;;;;;;;;;;;15.96;55.91;96875.00;6246396;28;19921;-68
2022/06/05 12:29:19;;;;;;;;;;;;;;;15.88;56.05;96877.47;6246323;28;20418;-69
2022/06/05 12:32:32;;;;;;;;;;;;;;;15.80;56.19;96882.63;6246146;28;19920;-69
2022/06/05 12:35:35;;;;;;;;;;;;;;;15.66;56.40;96879.31;6245860;28;19921;-68
2022/06/05 12:38:40;;;;;;;;;;;;;;;15.58;56.59;96892.38;6245706;28;20414;-68
2022/06/05 12:42:02;;;;;;;;;;;;;;;15.56;56.68;96889.00;6245870;28;20331;-69
2022/06/05 12:45:05;;;;;;;;;;;;;;;15.35;57.09;96885.53;6244656;28;19925;-68
2022/06/05 12:48:36;;;;;;;;;;;;;;;15.30;57.25;96887.72;6245803;28;19927;-68
2022/06/05 12:51:44;;;;;;;;;;;;;;;15.24;57.46;96889.06;6244796;28;19925;-67
2022/06/05 12:54:53;;;;;;;;;;;;;;;15.11;57.78;96894.53;6245788;28;20066;-68
2022/06/05 12:58:05;;;;;;;;;;;;;;;15.15;57.76;96895.16;6245324;28;20408;-67
2022/06/05 13:01:14;;;;;;;;;;;;;;;15.06;57.93;96896.75;6245508;28;19921;-68
2022/06/05 13:04:36;;;;;;;;;;;;;;;14.87;58.24;96896.59;6248297;28;20356;-68
2022/06/05 13:07:57;;;;;;;;;;;;;;;14.87;58.44;96896.59;6250741;28;19921;-68
2022/06/05 13:11:00;;;;;;;;;;;;;;;14.90;58.32;96897.16;6250639;28;20015;-69
2022/06/05 13:14:01;;;;;;;;;;;;;;;14.99;58.35;96906.16;6250761;28;19928;-68
2022/06/05 13:17:09;;;;;;;;;;;;;;;14.98;58.28;96917.75;6250808;28;19921;-67
2022/06/05 13:20:20;;;;;;;;;;;;;;;15.05;58.08;96903.84;6250836;28;19921;-69
2022/06/05 13:23:40;;;;;;;;;;;;;;;15.00;58.26;96897.22;6250025;28;20403;-68
2022/06/05 13:26:52;;;;;;;;;;;;;;;14.89;58.54;96903.44;6250273;28;19921;-69
2022/06/05 13:30:14;;;;;;;;;;;;;;;14.76;58.80;96900.94;6250619;28;19921;-68
2022/06/05 13:33:25;;;;;;;;;;;;;;;14.73;58.95;96900.34;6250448;28;20657;-68
2022/06/05 13:36:39;;;;;;;;;;;;;;;14.58;59.29;96913.03;6250297;28;19921;-67
2022/06/05 13:39:45;;;;;;;;;;;;;;;14.49;59.54;96913.72;6249711;28;19921;-68
2022/06/05 13:42:49;;;;;;;;;;;;;;;14.27;59.89;96915.44;6250790;28;20308;-69
2022/06/05 13:45:55;;;;;;;;;;;;;;;14.15;60.26;96905.78;6250118;28;19933;-68
2022/06/05 13:48:59;;;;;;;;;;;;;;;14.08;60.77;96899.31;6249730;28;19921;-68
2022/06/05 13:52:26;;;;;;;;;;;;;;;14.03;60.83;96909.41;6249826;28;20022;-69
2022/06/05 13:55:30;;;;;;;;;;;;;;;13.99;61.04;96905.34;6249711;28;19921;-68
2022/06/05 13:58:43;;;;;;;;;;;;;;;14.09;61.07;96911.56;6249663;28;19928;-69
2022/06/05 14:01:59;;;;;;;;;;;;;;;13.85;61.84;96899.31;6249479;28;19928;-67
2022/06/05 14:05:12;;;;;;;;;;;;;;;13.74;61.57;96912.53;6248497;28;20304;-68
2022/06/05 14:08:32;;;;;;;;;;;;;;;13.55;62.22;96906.94;6249546;28;19921;-68
2022/06/05 14:11:44;;;;;;;;;;;;;;;13.63;62.34;96901.94;6249302;28;19921;-68
2022/06/05 14:14:45;;;;;;;;;;;;;;;13.40;63.02;96904.53;6248664;28;19931;-68
2022/06/05 14:17:54;;;;;;;;;;;;;;;13.24;63.29;96907.44;6249192;28;19921;-67
2022/06/05 14:20:59;;;;;;;;;;;;;;;13.17;63.50;96902.75;6249444;28;19925;-68
2022/06/05 14:24:06;;;;;;;;;;;;;;;13.30;63.61;96907.97;6249303;28;19920;-68
2022/06/05 14:27:13;;;;;;;;;;;;;;;13.15;64.08;96904.66;6248921;28;20002;-69
2022/06/05 14:30:20;;;;;;;;;;;;;;;13.25;64.06;96897.72;6249058;28;19921;-68
2022/06/05 14:33:31;;;;;;;;;;;;;;;13.11;64.77;96890.00;6249074;28;20320;-69
2022/06/05 14:36:44;;;;;;;;;;;;;;;12.87;65.04;96890.84;6248602;28;20388;-69
2022/06/05 14:39:48;;;;;;;;;;;;;;;12.83;65.14;96889.41;6248762;28;20023;-68
2022/06/05 14:43:01;;;;;;;;;;;;;;;13.04;65.43;96892.22;6248618;28;19921;-68
2022/06/05 14:46:04;;;;;;;;;;;;;;;13.08;65.17;96898.13;6248616;28;19925;-68
2022/06/05 14:49:11;;;;;;;;;;;;;;;12.88;65.58;96903.13;6248048;28;20311;-68
2022/06/05 14:52:31;;;;;;;;;;;;;;;12.83;66.38;96905.25;6247080;28;19921;-68
2022/06/05 14:59:12;;;;;;;;;;;;;;;12.44;67.33;96904.53;6248510;28;20460;-68
2022/06/05 15:02:22;;;;;;;;;;;;;;;12.42;67.65;96900.31;6248359;28;19928;-68
2022/06/05 15:05:29;;;;;;;;;;;;;;;12.36;67.63;96907.72;6248349;28;20335;-68
2022/06/05 15:08:41;;;;;;;;;;;;;;;12.70;67.61;96913.19;6248182;28;20308;-68
2022/06/05 15:11:51;;;;;;;;;;;;;;;12.49;67.58;96907.69;6247954;28;19921;-68
2022/06/05 15:14:58;;;;;;;;;;;;;;;12.29;68.17;96905.66;6248053;28;19928;-68
2022/06/05 15:18:03;;;;;;;;;;;;;;;12.40;68.04;96907.50;6248152;28;19924;-69
2022/06/05 15:21:09;;;;;;;;;;;;;;;12.47;67.85;96921.94;6247831;28;20428;-69
2022/06/05 15:24:22;;;;;;;;;;;;;;;12.36;68.43;96922.72;6247535;28;19921;-69
2022/06/05 15:27:26;;;;;;;;;;;;;;;12.19;68.82;96917.78;6246552;28;19963;-69
2022/06/05 15:30:31;;;;;;;;;;;;;;;12.26;68.87;96926.97;6247629;28;20398;-69
2022/06/05 15:33:58;;;;;;;;;;;;;;;12.15;69.06;96924.25;6247458;28;19920;-68
2022/06/05 15:37:08;;;;;;;;;;;;;;;12.08;69.16;96918.53;6246292;28;19960;-67
2022/06/05 15:40:16;;;;;;;;;;;;;;;12.16;69.13;96920.66;6247433;28;19921;-68
2022/06/05 15:43:32;;;;;;;;;;;;;;;12.19;68.92;96920.44;6247567;28;19921;-69
2022/06/05 15:46:52;;;;;;;;;;;;;;;12.28;68.97;96919.75;6247118;28;19928;-69
2022/06/05 15:49:56;;;;;;;;;;;;;;;12.37;68.87;96924.41;6247178;28;19925;-69
2022/06/05 15:53:05;;;;;;;;;;;;;;;12.18;69.27;96921.38;6246662;28;19921;-68
2022/06/05 15:56:27;;;;;;;;;;;;;;;12.09;69.60;96926.34;6246979;28;19928;-69
2022/06/05 15:59:48;;;;;;;;;;;;;;;12.08;69.36;96919.38;6246759;28;19921;-69
2022/06/05 16:02:51;;;;;;;;;;;;;;;11.98;69.56;96928.91;6246183;28;19928;-68
2022/06/05 16:05:53;;;;;;;;;;;;;;;11.87;70.23;96932.28;6246944;28;19921;-68
2022/06/05 16:09:04;;;;;;;;;;;;;;;11.78;70.59;96929.41;6246856;28;19921;-69
2022/06/05 16:12:11;;;;;;;;;;;;;;;11.98;70.43;96928.06;6246268;28;20435;-69
2022/06/05 16:15:16;;;;;;;;;;;;;;;11.89;70.18;96929.53;6245261;28;20296;-69
2022/06/05 16:18:33;;;;;;;;;;;;;;;11.64;70.79;96941.72;6246735;28;19920;-69
2022/06/05 16:21:41;;;;;;;;;;;;;;;11.72;71.22;96935.06;6245331;28;20388;-68
2022/06/05 16:24:50;;;;;;;;;;;;;;;11.69;70.59;96926.44;6246474;28;19920;-68
2022/06/05 16:27:56;;;;;;;;;;;;;;;11.63;70.69;96929.50;6246239;28;19921;-68
2022/06/05 16:31:23;;;;;;;;;;;;;;;11.62;71.09;96927.81;6246334;28;19921;-69
2022/06/05 16:37:57;;;;;;;;;;;;;;;11.53;71.48;96938.97;6245506;28;19928;-69
2022/06/05 16:40:58;;;;;;;;;;;;;;;11.75;70.59;96941.00;6246225;28;20388;-68
2022/06/05 16:44:01;;;;;;;;;;;;;;;11.56;70.78;96938.78;6245918;28;19921;-68
2022/06/05 16:47:05;;;;;;;;;;;;;;;11.66;70.84;96946.88;6244694;28;19921;-68
2022/06/05 16:50:21;;;;;;;;;;;;;;;11.55;71.07;96942.34;6245912;28;19921;-68